Time;durP1;ratioP1;P1;durP2;ratioP2;P2;SDS_P1;SDS_P2;PMS_P1;PMS_P2;Temp;Humidity;BMP_temperature;BMP_pressure;BME280_temperature;BME280_humidity;BME280_pressure;Samples;Min_cycle;Max_cycle;Signal;HPM_P1;HPM_P2
2022/12/13 00:00:17;;;;;;;;;;;-3274.50;82.50;;;;;;5047035;28;19913;-76
2022/12/13 00:02:43;;;;;;;;;;;-3274.50;82.80;;;;;;5050922;28;19916;-77
2022/12/13 00:05:09;;;;;;;;;;;-3274.40;82.80;;;;;;5048745;28;20397;-76
2022/12/13 00:07:34;;;;;;;;;;;-3274.50;82.60;;;;;;5048396;28;20040;-77
2022/12/13 00:10:03;;;;;;;;;;;-3274.50;82.40;;;;;;5047513;28;19999;-76
2022/12/13 00:12:29;;;;;;;;;;;-3274.50;82.20;;;;;;5050845;28;19920;-75
2022/12/13 00:14:54;;;;;;;;;;;-3274.50;82.10;;;;;;5049625;28;19912;-76
2022/12/13 00:17:20;;;;;;;;;;;-3274.50;82.20;;;;;;5051319;28;19924;-76
2022/12/13 00:19:46;;;;;;;;;;;-3274.40;82.30;;;;;;5045404;28;19932;-75
2022/12/13 00:22:12;;;;;;;;;;;-3274.40;82.10;;;;;;5050158;28;19912;-76
2022/12/13 00:24:37;;;;;;;;;;;-3274.30;81.90;;;;;;5049637;28;20103;-74
2022/12/13 00:27:03;;;;;;;;;;;-3274.20;82.00;;;;;;5050917;28;19963;-76
2022/12/13 00:29:28;;;;;;;;;;;-3274.20;82.20;;;;;;5046785;28;19920;-76
2022/12/13 00:31:54;;;;;;;;;;;-3274.20;82.20;;;;;;5052351;28;19897;-75
2022/12/13 00:34:19;;;;;;;;;;;-3274.10;82.10;;;;;;5054835;28;19929;-75
2022/12/13 00:36:45;;;;;;;;;;;-3274.10;82.00;;;;;;5050465;28;19920;-76
2022/12/13 00:39:12;;;;;;;;;;;-3274.00;82.40;;;;;;5050353;28;19967;-77
2022/12/13 00:41:38;;;;;;;;;;;-3274.00;82.50;;;;;;5050857;28;20406;-76
2022/12/13 00:44:03;;;;;;;;;;;-3274.00;82.60;;;;;;5047724;28;19917;-74
2022/12/13 00:46:29;;;;;;;;;;;-3273.90;82.50;;;;;;5049681;28;19951;-76
2022/12/13 00:48:56;;;;;;;;;;;-3273.90;82.70;;;;;;5049751;28;20267;-76
2022/12/13 00:51:22;;;;;;;;;;;-3273.90;83.10;;;;;;5052290;28;19913;-76
2022/12/13 00:53:48;;;;;;;;;;;-3273.90;83.10;;;;;;5044804;28;20407;-76
2022/12/13 00:56:15;;;;;;;;;;;-3274.00;83.00;;;;;;5046007;28;19960;-76
2022/12/13 00:58:40;;;;;;;;;;;-3274.00;82.90;;;;;;5048209;28;19936;-75
2022/12/13 01:01:10;;;;;;;;;;;-3273.90;83.00;;;;;;5078146;22;19929;-77
2022/12/13 01:03:36;;;;;;;;;;;-3274.00;82.70;;;;;;5061887;28;19920;-78
2022/12/13 01:06:07;;;;;;;;;;;-3274.00;82.60;;;;;;5070610;28;19955;-77
2022/12/13 01:08:32;;;;;;;;;;;-3274.00;82.20;;;;;;5087532;28;19966;-75
2022/12/13 01:10:58;;;;;;;;;;;-3274.00;82.50;;;;;;5085306;28;19920;-78
2022/12/13 01:13:23;;;;;;;;;;;-3274.00;82.70;;;;;;5074816;28;19966;-78
2022/12/13 01:15:49;;;;;;;;;;;-3274.00;82.70;;;;;;5074383;28;19916;-78
2022/12/13 01:18:17;;;;;;;;;;;-3273.90;82.30;;;;;;5072835;28;19916;-78
2022/12/13 01:20:43;;;;;;;;;;;-3273.90;82.50;;;;;;5070421;28;19913;-78
2022/12/13 01:23:08;;;;;;;;;;;-3273.90;82.30;;;;;;5071959;28;20343;-78
2022/12/13 01:25:36;;;;;;;;;;;-3273.90;82.30;;;;;;5069108;28;19912;-78
2022/12/13 01:28:01;;;;;;;;;;;-3273.90;82.00;;;;;;5069326;28;19912;-77
2022/12/13 01:30:27;;;;;;;;;;;-3273.90;81.90;;;;;;5077853;28;19927;-78
2022/12/13 01:32:52;;;;;;;;;;;-3273.90;81.90;;;;;;5070811;28;19909;-77
2022/12/13 01:35:17;;;;;;;;;;;-3273.90;82.00;;;;;;5073465;28;19919;-77
2022/12/13 01:37:43;;;;;;;;;;;-3273.90;81.70;;;;;;5073627;28;19931;-78
2022/12/13 01:40:09;;;;;;;;;;;-3273.80;81.60;;;;;;5080967;28;19916;-77
2022/12/13 01:42:38;;;;;;;;;;;-3273.80;82.00;;;;;;5069096;28;19912;-78
2022/12/13 01:45:05;;;;;;;;;;;-3273.80;81.90;;;;;;5069768;28;19920;-78
2022/12/13 01:47:42;;;;;;;;;;;-3273.70;82.20;;;;;;5064888;28;19919;-77
2022/12/13 01:50:10;;;;;;;;;;;-3273.70;82.20;;;;;;5072206;28;19920;-78
2022/12/13 01:52:36;;;;;;;;;;;-3273.70;82.40;;;;;;5068431;28;19917;-76
2022/12/13 01:55:03;;;;;;;;;;;-3273.70;82.30;;;;;;5067844;28;20358;-77
2022/12/13 01:57:29;;;;;;;;;;;-3273.60;81.90;;;;;;5070604;28;19913;-76
2022/12/13 01:59:54;;;;;;;;;;;-3273.60;82.00;;;;;;5069090;28;19919;-76
2022/12/13 02:02:20;;;;;;;;;;;-3273.60;82.10;;;;;;5068044;28;19925;-78
2022/12/13 02:05:07;;;;;;;;;;;-3273.60;82.20;;;;;;5066189;28;20374;-78
2022/12/13 02:07:34;;;;;;;;;;;-3273.60;82.30;;;;;;5069650;28;20027;-78
2022/12/13 02:10:01;;;;;;;;;;;-3273.60;82.50;;;;;;5067698;28;19966;-77
2022/12/13 02:12:28;;;;;;;;;;;-3273.70;82.00;;;;;;5064834;28;19955;-77
2022/12/13 02:14:54;;;;;;;;;;;-3273.80;81.80;;;;;;5069056;28;19970;-76
2022/12/13 02:17:35;;;;;;;;;;;-3273.70;81.70;;;;;;5077251;28;19921;-77
2022/12/13 02:20:00;;;;;;;;;;;-3273.60;81.80;;;;;;5076709;28;19913;-78
2022/12/13 02:22:29;;;;;;;;;;;-3273.60;81.80;;;;;;5070845;28;20027;-78
2022/12/13 02:25:11;;;;;;;;;;;-3273.60;81.90;;;;;;5068506;28;19920;-78
2022/12/13 02:27:56;;;;;;;;;;;-3273.60;82.00;;;;;;5066168;28;19923;-78
2022/12/13 02:30:23;;;;;;;;;;;-3273.50;81.80;;;;;;5068431;28;20527;-76
2022/12/13 02:33:05;;;;;;;;;;;-3273.70;81.80;;;;;;5076358;28;19923;-78
2022/12/13 02:35:33;;;;;;;;;;;-3273.70;81.80;;;;;;5068252;28;20007;-78
2022/12/13 02:38:01;;;;;;;;;;;-3273.60;81.80;;;;;;5071028;28;19916;-78
2022/12/13 02:40:38;;;;;;;;;;;-3273.50;81.90;;;;;;5068128;28;20034;-78
2022/12/13 02:43:07;;;;;;;;;;;-3273.50;82.30;;;;;;5069940;28;19925;-77
2022/12/13 02:45:36;;;;;;;;;;;-3273.50;82.20;;;;;;5067172;28;20281;-77
2022/12/13 02:48:03;;;;;;;;;;;-3273.40;82.30;;;;;;5069252;28;19917;-78
2022/12/13 02:50:29;;;;;;;;;;;-3273.40;82.50;;;;;;5067623;28;20324;-76
2022/12/13 02:52:55;;;;;;;;;;;-3273.40;82.50;;;;;;5063217;28;20305;-77
2022/12/13 02:55:20;;;;;;;;;;;-3273.40;82.40;;;;;;5067905;28;19913;-77
2022/12/13 02:57:47;;;;;;;;;;;-3273.30;82.20;;;;;;5068556;28;19920;-78
2022/12/13 03:00:20;;;;;;;;;;;-3273.20;82.40;;;;;;5072603;28;20369;-77
2022/12/13 03:02:48;;;;;;;;;;;-3273.20;82.50;;;;;;5075916;28;20390;-77
2022/12/13 03:08:07;;;;;;;;;;;-3273.20;82.10;;;;;;5069100;28;19935;-78
2022/12/13 03:10:38;;;;;;;;;;;-3273.30;82.00;;;;;;5076946;28;20382;-77
2022/12/13 03:15:57;;;;;;;;;;;-3273.30;82.10;;;;;;5078271;28;19923;-77
2022/12/13 03:18:23;;;;;;;;;;;-3273.30;81.90;;;;;;5071912;28;19912;-77
2022/12/13 03:20:50;;;;;;;;;;;-3273.20;81.50;;;;;;5068239;28;19912;-77
2022/12/13 03:23:17;;;;;;;;;;;-3273.20;81.80;;;;;;5065182;28;20388;-77
2022/12/13 03:25:42;;;;;;;;;;;-3273.00;81.70;;;;;;5068956;28;19912;-77
2022/12/13 03:28:08;;;;;;;;;;;-3273.10;81.80;;;;;;5071337;28;20011;-76
2022/12/13 03:30:34;;;;;;;;;;;-3273.20;81.80;;;;;;5069672;28;19956;-76
2022/12/13 03:32:59;;;;;;;;;;;-3273.00;81.80;;;;;;5087224;28;19900;-76
2022/12/13 03:35:25;;;;;;;;;;;-3273.00;81.70;;;;;;5085619;28;20564;-78
2022/12/13 03:37:51;;;;;;;;;;;-3273.00;81.80;;;;;;5072981;28;19913;-78
2022/12/13 03:40:17;;;;;;;;;;;-3273.00;81.40;;;;;;5073128;28;19913;-77
2022/12/13 03:42:42;;;;;;;;;;;-3272.90;81.60;;;;;;5079409;28;19942;-78
2022/12/13 03:45:08;;;;;;;;;;;-3272.90;82.10;;;;;;5075007;28;20003;-79
2022/12/13 03:47:33;;;;;;;;;;;-3272.90;82.10;;;;;;5072271;28;19923;-78
2022/12/13 03:49:59;;;;;;;;;;;-3273.00;81.70;;;;;;5071893;28;19916;-77
2022/12/13 03:52:24;;;;;;;;;;;-3272.90;81.60;;;;;;5067108;28;20347;-77
2022/12/13 03:54:50;;;;;;;;;;;-3273.00;81.90;;;;;;5069897;28;19951;-78
2022/12/13 03:57:15;;;;;;;;;;;-3272.90;81.90;;;;;;5071788;28;19935;-77
2022/12/13 03:59:40;;;;;;;;;;;-3272.90;81.80;;;;;;5071662;28;20003;-77
2022/12/13 04:02:06;;;;;;;;;;;-3272.90;81.60;;;;;;5067640;28;19921;-77
2022/12/13 04:04:31;;;;;;;;;;;-3272.80;81.50;;;;;;5074197;28;19916;-77
2022/12/13 04:06:57;;;;;;;;;;;-3273.00;81.90;;;;;;5073020;28;19913;-76
2022/12/13 04:09:22;;;;;;;;;;;-3273.00;81.50;;;;;;5074887;28;20012;-77
2022/12/13 04:14:32;;;;;;;;;;;-3272.80;81.80;;;;;;5072095;28;19924;-77
2022/12/13 04:16:57;;;;;;;;;;;-3272.90;81.90;;;;;;5071916;28;19912;-77
2022/12/13 04:19:22;;;;;;;;;;;-3273.00;82.00;;;;;;5074186;28;20344;-76
2022/12/13 04:21:48;;;;;;;;;;;-3273.00;81.90;;;;;;5069265;28;19916;-78
2022/12/13 04:24:13;;;;;;;;;;;-3273.00;82.10;;;;;;5075446;28;19986;-77
2022/12/13 04:26:39;;;;;;;;;;;-3272.90;81.90;;;;;;5070365;28;19966;-77
2022/12/13 04:29:04;;;;;;;;;;;-3273.00;81.80;;;;;;5074181;28;19991;-78
2022/12/13 04:31:30;;;;;;;;;;;-3273.00;81.90;;;;;;5069861;28;20007;-77
2022/12/13 04:33:55;;;;;;;;;;;-3273.00;81.90;;;;;;5069838;28;19913;-77
2022/12/13 04:36:24;;;;;;;;;;;-3273.00;81.50;;;;;;5073120;28;19920;-77
2022/12/13 04:38:49;;;;;;;;;;;-3273.00;81.50;;;;;;5073411;28;19912;-76
2022/12/13 04:41:16;;;;;;;;;;;-3272.80;81.60;;;;;;5076843;28;19919;-76
2022/12/13 04:43:42;;;;;;;;;;;-3272.80;81.80;;;;;;5080116;28;19970;-76
2022/12/13 04:46:07;;;;;;;;;;;-3272.80;81.60;;;;;;5079696;28;19921;-78
2022/12/13 04:48:33;;;;;;;;;;;-3272.80;81.50;;;;;;5073014;28;19966;-77
2022/12/13 04:50:59;;;;;;;;;;;-3272.70;81.70;;;;;;5075476;28;20553;-77
2022/12/13 04:53:24;;;;;;;;;;;-3272.70;81.70;;;;;;5073568;28;20015;-77
2022/12/13 04:55:50;;;;;;;;;;;-3272.70;81.60;;;;;;5076217;28;20017;-78
2022/12/13 04:58:15;;;;;;;;;;;-3272.70;81.10;;;;;;5070926;28;19920;-76
2022/12/13 05:00:40;;;;;;;;;;;-3272.70;81.40;;;;;;5068623;28;19919;-76
2022/12/13 05:03:06;;;;;;;;;;;-3272.60;81.30;;;;;;5069883;28;19924;-77
2022/12/13 05:05:31;;;;;;;;;;;-3272.60;81.30;;;;;;5074061;28;19916;-77
2022/12/13 05:07:57;;;;;;;;;;;-3272.60;81.30;;;;;;5072274;28;19912;-76
2022/12/13 05:10:22;;;;;;;;;;;-3272.60;81.30;;;;;;5068144;28;19994;-77
2022/12/13 05:12:48;;;;;;;;;;;-3272.50;81.50;;;;;;5068608;28;20359;-77
2022/12/13 05:15:13;;;;;;;;;;;-3272.60;81.40;;;;;;5073313;28;20023;-77
2022/12/13 05:17:39;;;;;;;;;;;-3272.60;81.60;;;;;;5069854;28;19916;-75
2022/12/13 05:20:04;;;;;;;;;;;-3272.60;82.10;;;;;;5071471;28;19916;-77
2022/12/13 05:22:30;;;;;;;;;;;-3272.50;81.90;;;;;;5063421;28;19919;-76
2022/12/13 05:24:55;;;;;;;;;;;-3272.60;81.80;;;;;;5068111;28;19917;-76
2022/12/13 05:27:21;;;;;;;;;;;-3272.70;81.70;;;;;;5070912;28;19917;-77
2022/12/13 05:29:46;;;;;;;;;;;-3272.60;81.40;;;;;;5068960;28;19913;-76
2022/12/13 05:32:11;;;;;;;;;;;-3272.60;81.40;;;;;;5072287;28;20053;-76
2022/12/13 05:34:37;;;;;;;;;;;-3272.80;81.50;;;;;;5089904;28;19912;-75
2022/12/13 05:37:02;;;;;;;;;;;-3272.90;81.80;;;;;;5070298;28;19921;-77
2022/12/13 05:39:28;;;;;;;;;;;-3272.90;81.90;;;;;;5071563;28;19950;-78
2022/12/13 05:41:54;;;;;;;;;;;-3272.80;82.00;;;;;;5069706;28;19923;-77
2022/12/13 05:44:20;;;;;;;;;;;-3272.70;81.60;;;;;;5076205;28;20386;-77
2022/12/13 05:46:45;;;;;;;;;;;-3272.70;81.50;;;;;;5074897;28;19973;-77
2022/12/13 05:49:11;;;;;;;;;;;-3272.80;81.40;;;;;;5070053;28;20016;-77
2022/12/13 05:51:36;;;;;;;;;;;-3272.70;80.90;;;;;;5069177;28;19958;-78
2022/12/13 05:54:01;;;;;;;;;;;-3272.70;80.90;;;;;;5067912;28;19991;-78
2022/12/13 05:56:27;;;;;;;;;;;-3272.70;80.90;;;;;;5075738;28;19936;-76
2022/12/13 05:58:53;;;;;;;;;;;-3272.70;81.10;;;;;;5085175;28;19919;-76
2022/12/13 06:01:18;;;;;;;;;;;-3272.70;81.20;;;;;;5080438;28;19924;-77
2022/12/13 06:03:44;;;;;;;;;;;-3272.60;80.80;;;;;;5070373;28;19917;-78
2022/12/13 06:06:10;;;;;;;;;;;-3272.70;81.10;;;;;;5081649;28;19943;-76
2022/12/13 06:08:36;;;;;;;;;;;-3272.80;81.10;;;;;;5069168;28;20479;-77
2022/12/13 06:11:02;;;;;;;;;;;-3272.70;81.20;;;;;;5071276;28;19908;-76
2022/12/13 06:13:28;;;;;;;;;;;-3272.80;81.10;;;;;;5073148;28;19912;-77
2022/12/13 06:15:53;;;;;;;;;;;-3272.70;81.00;;;;;;5078621;28;19966;-76
2022/12/13 06:18:19;;;;;;;;;;;-3272.70;81.10;;;;;;5068920;28;19927;-77
2022/12/13 06:20:54;;;;;;;;;;;-3272.70;80.80;;;;;;5070081;28;19973;-76
2022/12/13 06:23:19;;;;;;;;;;;-3272.70;80.90;;;;;;5070873;28;19927;-78
2022/12/13 06:25:45;;;;;;;;;;;-3272.70;81.10;;;;;;5086411;28;19909;-78
2022/12/13 06:28:10;;;;;;;;;;;-3272.60;80.90;;;;;;5070129;28;19932;-77
2022/12/13 06:30:35;;;;;;;;;;;-3272.70;80.70;;;;;;5071072;28;19912;-78
2022/12/13 06:33:01;;;;;;;;;;;-3272.50;80.80;;;;;;5075079;28;19916;-78
2022/12/13 06:35:26;;;;;;;;;;;-3272.40;81.30;;;;;;5082926;28;19951;-77
2022/12/13 06:37:52;;;;;;;;;;;-3272.40;80.90;;;;;;5065553;28;19908;-76
2022/12/13 06:40:17;;;;;;;;;;;-3272.30;81.20;;;;;;5066605;28;19974;-77
2022/12/13 06:42:43;;;;;;;;;;;-3272.40;81.10;;;;;;5062801;28;19919;-77
2022/12/13 06:45:09;;;;;;;;;;;-3272.30;81.10;;;;;;5068365;28;19916;-78
2022/12/13 06:47:34;;;;;;;;;;;-3272.40;81.40;;;;;;5069511;28;19913;-78
2022/12/13 06:50:00;;;;;;;;;;;-3272.30;81.10;;;;;;5065561;28;19978;-79
2022/12/13 06:52:25;;;;;;;;;;;-3272.30;81.40;;;;;;5070758;28;19974;-77
2022/12/13 06:54:51;;;;;;;;;;;-3272.20;81.40;;;;;;5066883;28;20315;-78
2022/12/13 06:57:17;;;;;;;;;;;-3272.20;81.30;;;;;;5072469;28;20362;-79
2022/12/13 06:59:42;;;;;;;;;;;-3272.30;81.30;;;;;;5070708;28;19963;-78
2022/12/13 07:02:07;;;;;;;;;;;-3272.40;80.90;;;;;;5087180;22;19928;-80
2022/12/13 07:04:33;;;;;;;;;;;-3272.20;80.90;;;;;;5081677;28;19920;-79
2022/12/13 07:06:58;;;;;;;;;;;-3272.20;81.20;;;;;;5079959;28;19920;-81
2022/12/13 07:09:24;;;;;;;;;;;-3272.20;81.20;;;;;;5107688;28;19920;-80
2022/12/13 07:11:49;;;;;;;;;;;-3272.20;81.00;;;;;;5081994;28;19912;-80
2022/12/13 07:14:15;;;;;;;;;;;-3272.20;81.00;;;;;;5071022;28;19987;-80
2022/12/13 07:16:40;;;;;;;;;;;-3272.10;81.20;;;;;;5075417;28;19916;-82
2022/12/13 07:19:05;;;;;;;;;;;-3272.20;81.40;;;;;;5065639;28;19923;-79
2022/12/13 07:21:31;;;;;;;;;;;-3272.20;81.50;;;;;;5064858;28;19912;-79
2022/12/13 07:23:57;;;;;;;;;;;-3272.20;81.50;;;;;;5087223;28;20348;-80
2022/12/13 07:26:23;;;;;;;;;;;-3272.20;80.90;;;;;;5071936;28;20377;-80
2022/12/13 07:28:48;;;;;;;;;;;-3272.20;80.90;;;;;;5068154;28;20297;-82
2022/12/13 07:31:14;;;;;;;;;;;-3272.20;81.10;;;;;;5070728;28;20007;-85
2022/12/13 07:33:40;;;;;;;;;;;-3272.20;80.90;;;;;;5078637;28;19923;-84
2022/12/13 07:36:11;;;;;;;;;;;-3272.20;80.80;;;;;;5086456;28;19912;-83
2022/12/13 07:38:36;;;;;;;;;;;-3272.20;81.00;;;;;;5077963;28;20027;-82
2022/12/13 07:41:02;;;;;;;;;;;-3272.20;80.80;;;;;;5079122;28;20410;-82
2022/12/13 07:43:28;;;;;;;;;;;-3272.10;80.80;;;;;;5072864;28;19943;-82
2022/12/13 07:45:57;;;;;;;;;;;-3272.10;80.90;;;;;;5076035;28;19951;-82
2022/12/13 07:48:22;;;;;;;;;;;-3272.10;80.80;;;;;;5073893;28;20281;-82
2022/12/13 07:50:48;;;;;;;;;;;-3272.10;81.00;;;;;;5075863;28;19912;-83
2022/12/13 07:53:13;;;;;;;;;;;-3272.20;81.20;;;;;;5075271;28;20385;-83
2022/12/13 07:55:38;;;;;;;;;;;-3272.10;81.10;;;;;;5077415;28;19923;-82
2022/12/13 07:58:05;;;;;;;;;;;-3272.20;80.90;;;;;;5076711;28;20003;-82
2022/12/13 08:00:31;;;;;;;;;;;-3272.20;81.20;;;;;;5070995;28;19917;-83
2022/12/13 08:02:56;;;;;;;;;;;-3272.20;81.00;;;;;;5065742;28;20005;-87
2022/12/13 08:05:23;;;;;;;;;;;-3272.30;81.00;;;;;;5072542;28;19982;-81
2022/12/13 08:07:49;;;;;;;;;;;-3272.30;80.90;;;;;;5072667;28;19913;-82
2022/12/13 08:10:14;;;;;;;;;;;-3272.40;80.90;;;;;;5088600;28;20661;-81
2022/12/13 08:12:40;;;;;;;;;;;-3272.50;81.20;;;;;;5072933;28;19924;-80
2022/12/13 08:15:05;;;;;;;;;;;-3272.50;81.40;;;;;;5076465;28;19913;-82
2022/12/13 08:17:31;;;;;;;;;;;-3272.50;81.10;;;;;;5074920;28;19977;-79
2022/12/13 08:19:56;;;;;;;;;;;-3272.50;81.20;;;;;;5071052;28;19935;-80
2022/12/13 08:22:21;;;;;;;;;;;-3272.60;81.30;;;;;;5061128;28;19952;-78
2022/12/13 08:24:47;;;;;;;;;;;-3272.60;81.40;;;;;;5082884;28;19927;-81
2022/12/13 08:27:12;;;;;;;;;;;-3272.70;81.80;;;;;;5068257;28;19909;-81
2022/12/13 08:29:38;;;;;;;;;;;-3272.70;81.30;;;;;;5073418;28;19939;-79
2022/12/13 08:32:05;;;;;;;;;;;-3272.70;81.50;;;;;;5076544;28;19897;-80
2022/12/13 08:34:30;;;;;;;;;;;-3272.90;81.90;;;;;;5080987;28;19921;-79
2022/12/13 08:36:56;;;;;;;;;;;-3272.90;81.90;;;;;;5070657;28;20382;-79
2022/12/13 08:39:21;;;;;;;;;;;-3272.90;81.90;;;;;;5069403;28;20310;-80
2022/12/13 08:41:46;;;;;;;;;;;-3273.00;82.10;;;;;;5073682;28;19912;-79
2022/12/13 08:44:12;;;;;;;;;;;-3273.00;82.00;;;;;;5072476;28;20010;-79
2022/12/13 08:46:37;;;;;;;;;;;-3273.00;82.20;;;;;;5076685;28;19916;-79
2022/12/13 08:49:03;;;;;;;;;;;-3273.00;82.70;;;;;;5074784;28;19908;-79
2022/12/13 08:51:28;;;;;;;;;;;-3273.20;83.00;;;;;;5071371;28;19958;-80
2022/12/13 08:53:54;;;;;;;;;;;-3273.20;83.00;;;;;;5070321;28;19954;-81
2022/12/13 08:56:19;;;;;;;;;;;-3273.30;83.10;;;;;;5070966;28;19912;-79
2022/12/13 08:58:48;;;;;;;;;;;-3273.30;82.90;;;;;;5066910;28;20018;-80
2022/12/13 09:01:13;;;;;;;;;;;-3273.30;82.90;;;;;;5065649;28;19939;-80
2022/12/13 09:03:38;;;;;;;;;;;-3273.30;83.10;;;;;;5075564;28;20263;-81
2022/12/13 09:06:09;;;;;;;;;;;-3273.30;83.60;;;;;;5070470;28;19984;-80
2022/12/13 09:08:35;;;;;;;;;;;-3273.40;83.80;;;;;;5073301;28;20021;-82
2022/12/13 09:11:00;;;;;;;;;;;-3273.40;84.00;;;;;;5072407;28;19913;-81
2022/12/13 09:13:27;;;;;;;;;;;-3273.40;84.00;;;;;;5074646;28;19921;-81
2022/12/13 09:15:53;;;;;;;;;;;-3273.50;84.00;;;;;;5085996;28;19922;-81
2022/12/13 09:18:18;;;;;;;;;;;-3273.60;84.00;;;;;;5079519;28;19924;-82
2022/12/13 09:20:43;;;;;;;;;;;-3273.70;83.90;;;;;;5084144;28;19920;-82
2022/12/13 09:23:09;;;;;;;;;;;-3273.70;84.10;;;;;;5069824;28;19921;-81
2022/12/13 09:25:34;;;;;;;;;;;-3273.70;84.30;;;;;;5082346;28;19946;-81
2022/12/13 09:28:02;;;;;;;;;;;-3273.70;84.40;;;;;;5094850;28;19905;-81
2022/12/13 09:30:28;;;;;;;;;;;-3273.70;84.70;;;;;;5091230;28;19916;-81
2022/12/13 09:32:54;;;;;;;;;;;-3273.80;84.90;;;;;;5084647;28;19938;-81
2022/12/13 09:35:19;;;;;;;;;;;-3273.80;84.90;;;;;;5095724;28;19913;-82
2022/12/13 09:37:46;;;;;;;;;;;-3273.80;84.90;;;;;;5078771;28;19920;-83
2022/12/13 09:40:25;;;;;;;;;;;-3273.90;84.90;;;;;;5077978;28;19913;-82
2022/12/13 09:42:52;;;;;;;;;;;-3274.00;84.80;;;;;;5076570;28;20324;-82
2022/12/13 09:45:18;;;;;;;;;;;-3274.10;84.70;;;;;;5070951;28;21551;-82
2022/12/13 09:47:45;;;;;;;;;;;-3274.10;84.60;;;;;;5070017;28;19944;-82
2022/12/13 09:50:23;;;;;;;;;;;-3274.20;84.40;;;;;;5076489;28;19915;-82
2022/12/13 09:52:48;;;;;;;;;;;-3274.20;84.40;;;;;;5073072;28;20392;-82
2022/12/13 09:55:17;;;;;;;;;;;-3274.30;84.30;;;;;;5073056;28;19942;-82
2022/12/13 09:57:43;;;;;;;;;;;-3274.30;84.20;;;;;;5085205;28;20022;-81
2022/12/13 10:00:13;;;;;;;;;;;-3274.40;84.20;;;;;;5078491;28;19985;-82
2022/12/13 10:02:46;;;;;;;;;;;-3274.40;84.00;;;;;;5076843;28;19983;-82
2022/12/13 10:05:17;;;;;;;;;;;-3274.40;83.80;;;;;;5069218;28;19926;-82
2022/12/13 10:07:42;;;;;;;;;;;-3274.50;83.80;;;;;;5078386;28;19927;-82
2022/12/13 10:10:08;;;;;;;;;;;-3274.50;83.80;;;;;;5087892;28;19948;-81
2022/12/13 10:12:35;;;;;;;;;;;-3274.50;83.60;;;;;;5073528;28;19913;-81
2022/12/13 10:15:01;;;;;;;;;;;-3274.60;83.10;;;;;;5072640;28;19921;-81
2022/12/13 10:17:35;;;;;;;;;;;-3274.60;82.70;;;;;;5091074;28;20002;-81
2022/12/13 10:20:01;;;;;;;;;;;-3274.70;82.00;;;;;;5074410;28;19923;-82
2022/12/13 10:22:27;;;;;;;;;;;-3274.70;81.60;;;;;;5068125;28;19912;-81
2022/12/13 10:25:04;;;;;;;;;;;-3274.80;81.70;;;;;;5074124;28;19916;-81
2022/12/13 10:27:40;;;;;;;;;;;-3274.80;81.90;;;;;;5074326;28;20018;-81
2022/12/13 10:30:26;;;;;;;;;;;-3274.90;82.00;;;;;;5074491;28;20022;-81
2022/12/13 10:32:53;;;;;;;;;;;-3275.10;81.50;;;;;;5071392;28;19916;-81
2022/12/13 10:35:22;;;;;;;;;;;-3275.10;81.10;;;;;;5073122;28;20251;-81
2022/12/13 10:37:48;;;;;;;;;;;-3275.10;81.10;;;;;;5079235;28;20420;-81
2022/12/13 10:40:26;;;;;;;;;;;-3275.10;81.20;;;;;;5077654;28;19913;-80
2022/12/13 10:43:06;;;;;;;;;;;-3275.10;81.10;;;;;;5087072;28;19919;-80
2022/12/13 10:45:32;;;;;;;;;;;-3275.10;81.30;;;;;;5079069;28;19917;-81
2022/12/13 10:47:57;;;;;;;;;;;-3275.10;81.50;;;;;;5075491;28;19913;-82
2022/12/13 10:50:25;;;;;;;;;;;-3275.20;81.80;;;;;;5077163;28;19923;-82
2022/12/13 10:52:50;;;;;;;;;;;-3275.20;81.80;;;;;;5070857;28;19919;-81
2022/12/13 10:55:28;;;;;;;;;;;-3275.30;81.90;;;;;;5076645;28;19912;-81
2022/12/13 10:57:55;;;;;;;;;;;-3275.50;82.10;;;;;;5078253;28;19913;-82
2022/12/13 11:00:32;;;;;;;;;;;-3275.50;82.10;;;;;;5080223;28;20397;-81
2022/12/13 11:02:58;;;;;;;;;;;-3275.60;81.80;;;;;;5068022;28;19935;-83
2022/12/13 11:05:23;;;;;;;;;;;-3275.60;81.80;;;;;;5073740;28;19912;-83
2022/12/13 11:07:49;;;;;;;;;;;-3275.60;81.70;;;;;;5072773;28;19917;-82
2022/12/13 11:10:25;;;;;;;;;;;-3275.60;81.20;;;;;;5074555;28;19946;-83
2022/12/13 11:12:54;;;;;;;;;;;-3275.60;81.50;;;;;;5080056;28;20030;-83
2022/12/13 11:15:21;;;;;;;;;;;-3275.60;81.10;;;;;;5084812;28;19978;-81
2022/12/13 11:17:58;;;;;;;;;;;-3275.70;81.00;;;;;;5088630;28;19928;-81
2022/12/13 11:20:24;;;;;;;;;;;-3275.80;80.90;;;;;;5084131;28;19918;-81
2022/12/13 11:22:58;;;;;;;;;;;-3276.00;80.60;;;;;;5093538;28;19923;-81
2022/12/13 11:25:42;;;;;;;;;;;-3276.00;80.30;;;;;;5086271;28;19924;-83
2022/12/13 11:28:15;;;;;;;;;;;-3276.00;80.00;;;;;;5086613;28;20254;-81
2022/12/13 11:30:40;;;;;;;;;;;-3276.00;79.60;;;;;;5082696;28;20007;-81
2022/12/13 11:33:05;;;;;;;;;;;-3276.00;79.40;;;;;;5081904;28;19917;-81
2022/12/13 11:35:45;;;;;;;;;;;-3276.10;79.40;;;;;;5084698;28;19915;-81
2022/12/13 11:38:26;;;;;;;;;;;-3276.00;79.30;;;;;;5079395;28;19948;-81
2022/12/13 11:41:02;;;;;;;;;;;-3276.00;79.40;;;;;;5084639;28;19939;-83
2022/12/13 11:43:35;;;;;;;;;;;-3276.10;79.70;;;;;;5084007;28;19917;-83
2022/12/13 11:46:03;;;;;;;;;;;-3276.00;79.10;;;;;;5086466;28;19923;-82
2022/12/13 11:48:35;;;;;;;;;;;-3276.10;78.60;;;;;;5087109;28;19961;-82
2022/12/13 11:51:04;;;;;;;;;;;-3276.20;78.70;;;;;;5092335;28;19923;-82
2022/12/13 11:53:56;;;;;;;;;;;-3276.20;78.30;;;;;;5089192;28;19908;-82
2022/12/13 11:56:26;;;;;;;;;;;-3276.30;78.50;;;;;;5080442;28;20305;-82
2022/12/13 11:58:58;;;;;;;;;;;-3276.30;77.90;;;;;;5083946;28;20376;-83
2022/12/13 12:01:31;;;;;;;;;;;-3276.40;77.90;;;;;;5078964;28;19924;-83
2022/12/13 12:03:56;;;;;;;;;;;-3276.50;76.10;;;;;;5086266;28;19923;-83
2022/12/13 12:06:24;;;;;;;;;;;-3276.40;75.90;;;;;;5083466;28;19908;-83
2022/12/13 12:08:49;;;;;;;;;;;-3276.50;76.10;;;;;;5078471;28;19924;-83
2022/12/13 12:11:34;;;;;;;;;;;-3276.40;77.10;;;;;;5080843;28;19917;-82
2022/12/13 12:14:04;;;;;;;;;;;-3276.40;76.70;;;;;;5087157;28;19913;-82
2022/12/13 12:16:32;;;;;;;;;;;-3276.50;76.80;;;;;;5083180;28;19921;-81
2022/12/13 12:18:58;;;;;;;;;;;-3276.50;76.00;;;;;;5079207;28;19925;-81
2022/12/13 12:21:43;;;;;;;;;;;-3276.50;75.80;;;;;;5078882;28;19919;-84
2022/12/13 12:24:11;;;;;;;;;;;-3276.50;75.60;;;;;;5074693;28;19916;-84
2022/12/13 12:26:40;;;;;;;;;;;-3276.40;75.70;;;;;;5078676;28;19919;-84
2022/12/13 12:29:24;;;;;;;;;;;-3276.50;75.60;;;;;;5078524;28;19982;-83
2022/12/13 12:31:50;;;;;;;;;;;-3276.50;76.10;;;;;;5076513;28;19912;-82
2022/12/13 12:34:15;;;;;;;;;;;-3276.50;76.10;;;;;;5076255;28;19946;-81
2022/12/13 12:36:41;;;;;;;;;;;-3276.50;75.20;;;;;;5077335;28;19984;-81
2022/12/13 12:39:09;;;;;;;;;;;-3276.50;76.30;;;;;;5079117;28;20358;-81
2022/12/13 12:41:37;;;;;;;;;;;-3276.40;76.00;;;;;;5070671;28;19992;-81
2022/12/13 12:44:21;;;;;;;;;;;-3276.40;76.50;;;;;;5078769;28;19923;-81
2022/12/13 12:46:57;;;;;;;;;;;-3276.40;76.70;;;;;;5090498;28;20039;-79
2022/12/13 12:49:31;;;;;;;;;;;-3276.40;75.40;;;;;;5088876;28;19905;-78
2022/12/13 12:52:05;;;;;;;;;;;-3276.40;75.40;;;;;;5081872;28;19926;-81
2022/12/13 12:54:42;;;;;;;;;;;-3276.40;74.30;;;;;;5082490;28;19908;-80
2022/12/13 12:57:13;;;;;;;;;;;-3276.40;74.30;;;;;;5082229;28;19952;-80
2022/12/13 12:59:53;;;;;;;;;;;-3276.30;74.20;;;;;;5082847;28;20561;-80
2022/12/13 13:02:24;;;;;;;;;;;-3276.40;74.60;;;;;;5104460;22;20382;-79
2022/12/13 13:04:55;;;;;;;;;;;-3276.40;74.90;;;;;;5069040;28;20305;-80
2022/12/13 13:07:24;;;;;;;;;;;-3276.40;75.50;;;;;;5066423;28;20013;-80
2022/12/13 13:09:51;;;;;;;;;;;-3276.30;75.70;;;;;;5070607;28;19912;-81
2022/12/13 13:12:17;;;;;;;;;;;-3276.40;76.00;;;;;;5071641;28;20410;-80
2022/12/13 13:14:43;;;;;;;;;;;-3276.40;76.30;;;;;;5083850;28;19931;-79
2022/12/13 13:17:14;;;;;;;;;;;-3276.40;76.20;;;;;;5087188;28;20345;-81
2022/12/13 13:19:41;;;;;;;;;;;-3276.40;74.40;;;;;;5069395;28;19966;-80
2022/12/13 13:22:25;;;;;;;;;;;-3276.40;73.30;;;;;;5068521;28;19919;-81
2022/12/13 13:24:58;;;;;;;;;;;-3276.40;73.30;;;;;;5072968;28;19924;-79
2022/12/13 13:27:28;;;;;;;;;;;-3276.40;72.70;;;;;;5065382;28;19912;-81
2022/12/13 13:30:03;;;;;;;;;;;-3276.40;72.50;;;;;;5068479;28;19912;-82
2022/12/13 13:32:30;;;;;;;;;;;-3276.50;72.70;;;;;;5061791;28;19983;-83
2022/12/13 13:35:15;;;;;;;;;;;-3276.50;73.10;;;;;;5064968;28;19912;-82
2022/12/13 13:37:47;;;;;;;;;;;-3276.50;72.90;;;;;;5065217;28;19912;-81
2022/12/13 13:40:13;;;;;;;;;;;-3276.50;71.70;;;;;;5078552;28;19958;-82
2022/12/13 13:42:57;;;;;;;;;;;-3276.50;71.40;;;;;;5074487;28;19936;-80
2022/12/13 13:45:23;;;;;;;;;;;-3276.60;71.00;;;;;;5070118;28;19917;-80
2022/12/13 13:47:57;;;;;;;;;;;-3276.50;70.90;;;;;;5074127;28;19919;-81
2022/12/13 13:50:35;;;;;;;;;;;-3276.50;71.10;;;;;;5062509;28;19920;-82
2022/12/13 13:53:09;;;;;;;;;;;-3276.50;71.30;;;;;;5065743;28;20348;-81